Time;durP1;ratioP1;P1;durP2;ratioP2;P2;SDS_P1;SDS_P2;PMS_P1;PMS_P2;Temp;Humidity;BMP_temperature;BMP_pressure;BME280_temperature;BME280_humidity;BME280_pressure;Samples;Min_cycle;Max_cycle;Signal;HPM_P1;HPM_P2
2023/06/10 00:00:36;;;;;;;11.68;5.53;;;;;;;;;;4843844;28;20075;-67
2023/06/10 00:03:02;;;;;;;11.95;5.60;;;;;;;;;;4844805;28;20833;-66
2023/06/10 00:05:29;;;;;;;11.93;5.50;;;;;;;;;;4858367;28;20045;-67
2023/06/10 00:07:55;;;;;;;10.60;5.57;;;;;;;;;;4843476;28;20829;-67
2023/06/10 00:10:21;;;;;;;12.52;5.65;;;;;;;;;;4843929;28;25458;-67
2023/06/10 00:12:46;;;;;;;10.50;5.80;;;;;;;;;;4844057;28;20036;-66
2023/06/10 00:15:12;;;;;;;10.23;5.68;;;;;;;;;;4844093;28;20064;-67
2023/06/10 00:17:38;;;;;;;9.20;5.80;;;;;;;;;;4857614;28;20193;-68
2023/06/10 00:20:08;;;;;;;10.60;5.68;;;;;;;;;;4844349;28;20206;-67
2023/06/10 00:22:34;;;;;;;8.75;5.30;;;;;;;;;;4843717;28;20126;-67
2023/06/10 00:24:59;;;;;;;9.25;5.25;;;;;;;;;;4842352;28;20045;-66
2023/06/10 00:27:26;;;;;;;11.77;5.65;;;;;;;;;;4843460;28;20049;-66
2023/06/10 00:29:51;;;;;;;11.35;5.38;;;;;;;;;;4844401;28;20045;-67
2023/06/10 00:32:18;;;;;;;10.60;5.40;;;;;;;;;;4844541;28;20033;-67
2023/06/10 00:34:44;;;;;;;9.80;5.43;;;;;;;;;;4847177;28;21894;-66
2023/06/10 00:37:09;;;;;;;8.90;5.35;;;;;;;;;;4845025;28;20836;-69
2023/06/10 00:39:35;;;;;;;12.35;5.32;;;;;;;;;;4845944;28;20033;-67
2023/06/10 00:42:00;;;;;;;9.32;5.40;;;;;;;;;;4846311;28;20050;-66
2023/06/10 00:44:26;;;;;;;9.32;5.30;;;;;;;;;;4862382;28;20116;-67
2023/06/10 00:46:52;;;;;;;8.68;5.43;;;;;;;;;;4848001;28;20154;-66
2023/06/10 00:49:20;;;;;;;12.23;5.80;;;;;;;;;;4848507;28;20037;-67
2023/06/10 00:51:48;;;;;;;10.68;5.18;;;;;;;;;;4846655;28;20048;-67
2023/06/10 00:54:16;;;;;;;10.30;5.03;;;;;;;;;;4846978;28;20052;-67
2023/06/10 00:56:42;;;;;;;11.55;5.65;;;;;;;;;;4862936;28;20369;-67
2023/06/10 00:59:08;;;;;;;12.13;5.85;;;;;;;;;;4847496;28;20060;-67
2023/06/10 01:01:33;;;;;;;9.90;5.35;;;;;;;;;;4847433;28;20029;-67
2023/06/10 01:03:59;;;;;;;11.57;5.65;;;;;;;;;;4846471;28;20132;-66
2023/06/10 01:06:30;;;;;;;9.82;5.63;;;;;;;;;;4845568;28;20071;-67
2023/06/10 01:09:00;;;;;;;11.27;5.90;;;;;;;;;;4847698;28;20079;-66
2023/06/10 01:11:29;;;;;;;10.63;6.18;;;;;;;;;;4847213;28;20042;-66
2023/06/10 01:13:55;;;;;;;10.57;5.72;;;;;;;;;;4847410;28;20069;-66
2023/06/10 01:16:23;;;;;;;11.18;5.70;;;;;;;;;;4847569;28;20572;-67
2023/06/10 01:18:48;;;;;;;12.05;5.80;;;;;;;;;;4848743;28;20032;-66
2023/06/10 01:21:26;;;;;;;10.20;5.47;;;;;;;;;;4847167;28;20094;-66
2023/06/10 01:23:58;;;;;;;12.40;6.32;;;;;;;;;;4847461;28;20107;-66
2023/06/10 01:26:32;;;;;;;12.18;5.97;;;;;;;;;;4859912;28;20541;-66
2023/06/10 01:29:11;;;;;;;12.15;5.80;;;;;;;;;;4846784;28;20044;-66
2023/06/10 01:31:46;;;;;;;12.88;6.00;;;;;;;;;;4846468;28;20043;-66
2023/06/10 01:34:13;;;;;;;11.52;6.03;;;;;;;;;;4845344;28;20039;-66
2023/06/10 01:36:43;;;;;;;12.90;6.05;;;;;;;;;;4845482;28;20036;-66
2023/06/10 01:39:10;;;;;;;10.02;5.80;;;;;;;;;;4845780;28;20036;-67
2023/06/10 01:41:36;;;;;;;13.07;6.43;;;;;;;;;;4844766;28;20934;-67
2023/06/10 01:44:03;;;;;;;10.48;6.15;;;;;;;;;;4845474;28;20041;-67
2023/06/10 01:46:28;;;;;;;9.48;5.72;;;;;;;;;;4828440;28;20037;-67
2023/06/10 01:48:54;;;;;;;10.45;5.53;;;;;;;;;;4846124;28;20124;-66
2023/06/10 01:51:20;;;;;;;10.45;6.20;;;;;;;;;;4844150;28;20083;-67
2023/06/10 01:53:47;;;;;;;10.45;5.70;;;;;;;;;;4845977;28;20051;-67
2023/06/10 01:56:18;;;;;;;12.27;5.55;;;;;;;;;;4845067;28;20033;-67
2023/06/10 01:58:44;;;;;;;10.85;6.22;;;;;;;;;;4845411;28;20106;-67
2023/06/10 02:01:12;;;;;;;9.48;5.80;;;;;;;;;;4844422;28;20044;-66
2023/06/10 02:03:37;;;;;;;11.23;5.47;;;;;;;;;;4844853;28;20049;-66
2023/06/10 02:06:03;;;;;;;11.50;5.85;;;;;;;;;;4845420;28;21084;-66
2023/06/10 02:08:28;;;;;;;10.75;5.78;;;;;;;;;;4846250;28;20056;-67
2023/06/10 02:10:55;;;;;;;12.77;5.80;;;;;;;;;;4845086;28;20171;-66
2023/06/10 02:13:24;;;;;;;12.02;6.10;;;;;;;;;;4845215;28;20047;-66
2023/06/10 02:15:53;;;;;;;9.90;6.18;;;;;;;;;;4845534;28;20044;-66
2023/06/10 02:18:20;;;;;;;16.45;6.03;;;;;;;;;;4846398;28;20561;-67
2023/06/10 02:20:45;;;;;;;10.73;5.50;;;;;;;;;;4846290;28;20816;-67
2023/06/10 02:23:11;;;;;;;9.40;5.47;;;;;;;;;;4844674;28;20045;-67
2023/06/10 02:25:36;;;;;;;10.32;5.78;;;;;;;;;;4859650;28;20033;-66
2023/06/10 02:28:03;;;;;;;9.10;5.45;;;;;;;;;;4845157;28;20080;-67
2023/06/10 02:30:28;;;;;;;12.75;5.85;;;;;;;;;;4845570;28;20040;-66
2023/06/10 02:32:56;;;;;;;11.13;5.90;;;;;;;;;;4845876;28;20041;-67
2023/06/10 02:35:23;;;;;;;10.65;5.45;;;;;;;;;;4844465;28;20138;-66
2023/06/10 02:37:49;;;;;;;7.82;5.38;;;;;;;;;;4845252;28;20055;-67
2023/06/10 02:40:17;;;;;;;8.55;5.18;;;;;;;;;;4844343;28;20041;-67
2023/06/10 02:42:42;;;;;;;10.70;6.18;;;;;;;;;;4845867;28;20157;-66
2023/06/10 02:45:07;;;;;;;12.57;6.18;;;;;;;;;;4860440;28;20776;-66
2023/06/10 02:47:33;;;;;;;10.43;5.50;;;;;;;;;;4859561;28;21228;-67
2023/06/10 02:49:58;;;;;;;9.95;5.10;;;;;;;;;;4846873;28;20045;-67
2023/06/10 02:52:24;;;;;;;10.02;5.65;;;;;;;;;;4845523;28;20063;-67
2023/06/10 02:54:49;;;;;;;9.40;5.55;;;;;;;;;;4844992;28;20048;-67
2023/06/10 02:57:14;;;;;;;9.45;5.60;;;;;;;;;;4906303;28;20079;-67
2023/06/10 02:59:40;;;;;;;15.35;6.30;;;;;;;;;;4840421;28;20869;-66
2023/06/10 03:02:08;;;;;;;11.40;6.05;;;;;;;;;;4857692;28;20140;-67
2023/06/10 03:04:37;;;;;;;13.10;5.67;;;;;;;;;;4844430;28;20036;-67
2023/06/10 03:07:03;;;;;;;11.30;5.93;;;;;;;;;;4845740;28;20281;-67
2023/06/10 03:09:29;;;;;;;11.45;6.25;;;;;;;;;;4843521;28;20048;-66
2023/06/10 03:11:54;;;;;;;10.40;6.25;;;;;;;;;;4845752;28;20068;-66
2023/06/10 03:14:19;;;;;;;12.63;5.88;;;;;;;;;;4846526;28;20048;-66
2023/06/10 03:16:45;;;;;;;13.68;5.68;;;;;;;;;;4860052;28;20872;-66
2023/06/10 03:19:10;;;;;;;10.32;5.70;;;;;;;;;;4845097;28;20151;-67
2023/06/10 03:21:38;;;;;;;10.35;5.68;;;;;;;;;;4843662;28;20532;-66
2023/06/10 03:24:04;;;;;;;10.85;5.70;;;;;;;;;;4842713;28;20041;-66
2023/06/10 03:26:29;;;;;;;13.55;5.50;;;;;;;;;;4843682;28;20913;-66
2023/06/10 03:28:54;;;;;;;10.90;5.95;;;;;;;;;;4843607;28;20071;-67
2023/06/10 03:31:20;;;;;;;12.05;6.00;;;;;;;;;;4844155;28;20044;-67
2023/06/10 03:33:45;;;;;;;8.68;6.00;;;;;;;;;;4844495;28;20737;-67
2023/06/10 03:36:10;;;;;;;10.88;5.72;;;;;;;;;;4843273;28;20799;-67
2023/06/10 03:38:36;;;;;;;14.10;6.40;;;;;;;;;;4859205;28;20223;-66
2023/06/10 03:41:01;;;;;;;12.43;6.28;;;;;;;;;;4859044;28;20048;-66
2023/06/10 03:43:27;;;;;;;9.80;6.35;;;;;;;;;;4845078;28;20029;-66
2023/06/10 03:45:52;;;;;;;11.55;6.20;;;;;;;;;;4844751;28;20195;-66
2023/06/10 03:48:18;;;;;;;11.35;6.38;;;;;;;;;;4844728;28;20044;-67
2023/06/10 03:50:43;;;;;;;11.60;6.25;;;;;;;;;;4843868;28;20116;-66
2023/06/10 03:53:08;;;;;;;12.23;6.28;;;;;;;;;;4845089;28;20207;-66
2023/06/10 03:55:34;;;;;;;12.02;5.95;;;;;;;;;;4843483;28;20522;-66
2023/06/10 03:57:59;;;;;;;13.60;6.35;;;;;;;;;;4844983;28;20044;-67
2023/06/10 04:00:25;;;;;;;12.60;6.47;;;;;;;;;;4859506;28;20659;-66
2023/06/10 04:02:51;;;;;;;13.35;6.63;;;;;;;;;;4844930;28;22500;-66
2023/06/10 04:05:20;;;;;;;9.82;6.60;;;;;;;;;;4859521;28;20096;-66
2023/06/10 04:07:45;;;;;;;14.38;6.80;;;;;;;;;;4846102;28;20080;-67
2023/06/10 04:10:11;;;;;;;13.80;6.88;;;;;;;;;;4846561;28;20045;-67
2023/06/10 04:12:37;;;;;;;12.50;6.70;;;;;;;;;;4847735;28;20155;-66
2023/06/10 04:15:05;;;;;;;12.68;5.93;;;;;;;;;;4848943;28;20063;-66
2023/06/10 04:17:33;;;;;;;10.43;6.80;;;;;;;;;;4847523;28;20124;-66
2023/06/10 04:20:01;;;;;;;11.85;6.65;;;;;;;;;;4846901;28;20040;-66
2023/06/10 04:22:28;;;;;;;12.48;6.60;;;;;;;;;;4846089;28;20041;-67
2023/06/10 04:24:54;;;;;;;11.45;6.53;;;;;;;;;;4909824;28;20037;-66
2023/06/10 04:27:19;;;;;;;10.80;6.78;;;;;;;;;;4860626;28;20118;-66
2023/06/10 04:29:44;;;;;;;10.05;6.63;;;;;;;;;;4845818;28;20175;-66
2023/06/10 04:32:09;;;;;;;12.52;6.50;;;;;;;;;;4847172;28;20044;-65
2023/06/10 04:34:35;;;;;;;10.23;6.85;;;;;;;;;;4845887;28;20061;-66
2023/06/10 04:37:01;;;;;;;11.07;6.38;;;;;;;;;;4847182;28;20144;-65
2023/06/10 04:39:27;;;;;;;10.05;6.50;;;;;;;;;;4861024;28;20152;-66
2023/06/10 04:41:54;;;;;;;10.52;6.63;;;;;;;;;;4844768;28;20068;-66
2023/06/10 04:44:21;;;;;;;12.10;6.63;;;;;;;;;;4861569;28;20040;-66
2023/06/10 04:46:50;;;;;;;11.63;6.45;;;;;;;;;;4847374;28;20036;-66
2023/06/10 04:49:16;;;;;;;13.70;7.18;;;;;;;;;;4846234;28;20934;-66
2023/06/10 04:51:41;;;;;;;13.60;6.57;;;;;;;;;;4860154;28;20048;-67
2023/06/10 04:54:07;;;;;;;11.68;6.90;;;;;;;;;;4846222;28;20044;-66
2023/06/10 04:56:34;;;;;;;11.38;6.45;;;;;;;;;;4861390;28;20028;-66
2023/06/10 04:59:02;;;;;;;8.95;6.07;;;;;;;;;;4846801;28;20612;-66
2023/06/10 05:01:27;;;;;;;10.93;6.63;;;;;;;;;;4846447;28;20127;-66
2023/06/10 05:03:55;;;;;;;12.45;6.30;;;;;;;;;;4846081;28;20041;-66
2023/06/10 05:06:22;;;;;;;13.00;6.57;;;;;;;;;;4846116;28;20147;-66
2023/06/10 05:08:48;;;;;;;11.55;6.20;;;;;;;;;;4847990;28;20048;-66
2023/06/10 05:11:13;;;;;;;12.65;6.35;;;;;;;;;;4845905;28;20470;-66
2023/06/10 05:13:40;;;;;;;10.00;6.00;;;;;;;;;;4845752;28;20044;-66
2023/06/10 05:16:09;;;;;;;11.55;6.70;;;;;;;;;;4846844;28;21423;-67
2023/06/10 05:18:35;;;;;;;13.95;6.22;;;;;;;;;;4847802;28;20033;-65
2023/06/10 05:21:00;;;;;;;10.93;6.18;;;;;;;;;;4848099;28;20055;-66
2023/06/10 05:23:26;;;;;;;10.52;6.05;;;;;;;;;;4862344;28;20147;-65
2023/06/10 05:25:51;;;;;;;9.23;6.30;;;;;;;;;;4846802;28;20083;-65
2023/06/10 05:28:19;;;;;;;14.07;5.82;;;;;;;;;;4847702;28;20049;-65
2023/06/10 05:30:44;;;;;;;14.05;6.35;;;;;;;;;;4847993;28;20039;-69
2023/06/10 05:33:12;;;;;;;12.65;5.95;;;;;;;;;;4844680;28;20120;-67
2023/06/10 05:35:37;;;;;;;9.05;5.70;;;;;;;;;;4847623;28;20041;-68
2023/06/10 05:38:02;;;;;;;9.18;5.78;;;;;;;;;;4859489;28;20044;-67
2023/06/10 05:40:28;;;;;;;9.68;5.72;;;;;;;;;;4845769;28;20816;-68
2023/06/10 05:42:55;;;;;;;8.20;5.10;;;;;;;;;;4846744;28;20032;-68
2023/06/10 05:45:23;;;;;;;11.43;5.85;;;;;;;;;;4846893;28;20226;-67
2023/06/10 05:47:48;;;;;;;9.38;5.32;;;;;;;;;;4861308;28;20044;-68
2023/06/10 05:50:13;;;;;;;9.65;5.57;;;;;;;;;;4860122;28;20045;-69
2023/06/10 05:52:43;;;;;;;9.43;5.35;;;;;;;;;;4847705;28;20622;-69
2023/06/10 05:55:09;;;;;;;10.70;5.43;;;;;;;;;;4862411;28;21681;-70
2023/06/10 05:57:34;;;;;;;9.13;5.50;;;;;;;;;;4848307;28;20037;-68
2023/06/10 06:00:02;;;;;;;7.28;5.55;;;;;;;;;;4843921;28;20045;-68
2023/06/10 06:02:27;;;;;;;10.38;5.50;;;;;;;;;;4845066;28;20079;-69
2023/06/10 06:04:54;;;;;;;10.98;4.88;;;;;;;;;;4845427;28;20127;-69
2023/06/10 06:07:20;;;;;;;11.43;5.53;;;;;;;;;;4847480;28;20064;-68
2023/06/10 06:09:48;;;;;;;10.55;5.28;;;;;;;;;;4847567;28;20040;-68
2023/06/10 06:12:14;;;;;;;8.05;5.63;;;;;;;;;;4846983;28;20053;-69
2023/06/10 06:14:40;;;;;;;8.45;5.25;;;;;;;;;;4848447;28;20184;-69
2023/06/10 06:17:05;;;;;;;8.98;5.30;;;;;;;;;;4862910;28;20037;-68
2023/06/10 06:19:31;;;;;;;8.88;4.70;;;;;;;;;;4847356;28;22563;-68
2023/06/10 06:21:58;;;;;;;9.68;5.18;;;;;;;;;;4847150;28;20053;-67
2023/06/10 06:24:24;;;;;;;9.07;4.82;;;;;;;;;;4845206;28;20160;-67
2023/06/10 06:26:51;;;;;;;12.07;5.55;;;;;;;;;;4844310;28;20127;-67
2023/06/10 06:29:17;;;;;;;10.00;5.55;;;;;;;;;;4846909;28;20059;-67
2023/06/10 06:31:43;;;;;;;11.63;5.38;;;;;;;;;;4845941;28;20028;-68
2023/06/10 06:34:10;;;;;;;7.45;4.70;;;;;;;;;;4846770;28;20647;-68
2023/06/10 06:36:38;;;;;;;10.73;5.32;;;;;;;;;;4848685;28;20140;-67
2023/06/10 06:39:03;;;;;;;13.27;5.85;;;;;;;;;;4847591;28;20029;-67
2023/06/10 06:41:28;;;;;;;11.15;5.10;;;;;;;;;;4847083;28;20060;-66
2023/06/10 06:43:54;;;;;;;8.68;4.90;;;;;;;;;;4844858;28;20072;-69
2023/06/10 06:46:19;;;;;;;8.80;4.70;;;;;;;;;;4842307;28;20044;-69
2023/06/10 06:48:45;;;;;;;10.80;4.65;;;;;;;;;;4845181;28;20187;-68
2023/06/10 06:51:12;;;;;;;8.57;4.80;;;;;;;;;;4846023;28;20739;-68
2023/06/10 06:53:43;;;;;;;11.65;5.03;;;;;;;;;;4846550;28;20390;-66
2023/06/10 06:56:09;;;;;;;8.13;5.22;;;;;;;;;;4846708;28;20036;-68
2023/06/10 06:58:36;;;;;;;7.57;5.07;;;;;;;;;;4860954;28;20162;-68
2023/06/10 07:01:02;;;;;;;9.18;5.10;;;;;;;;;;4845863;28;20080;-67
2023/06/10 07:03:27;;;;;;;7.80;4.85;;;;;;;;;;4847785;28;20036;-68
2023/06/10 07:05:52;;;;;;;10.02;5.18;;;;;;;;;;4905992;28;20045;-67
2023/06/10 07:08:17;;;;;;;12.75;4.95;;;;;;;;;;4846469;28;20063;-67
2023/06/10 07:10:43;;;;;;;10.50;4.95;;;;;;;;;;4843451;28;20037;-67
2023/06/10 07:13:08;;;;;;;9.90;5.18;;;;;;;;;;4845802;28;20049;-67
2023/06/10 07:15:33;;;;;;;9.38;5.00;;;;;;;;;;4845269;28;20646;-68
2023/06/10 07:18:01;;;;;;;10.82;5.53;;;;;;;;;;4844613;28;20105;-69
2023/06/10 07:20:28;;;;;;;9.45;5.13;;;;;;;;;;4845767;28;20075;-70
2023/06/10 07:22:54;;;;;;;10.93;4.82;;;;;;;;;;4845012;28;20044;-68
2023/06/10 07:25:19;;;;;;;12.85;5.43;;;;;;;;;;4844797;28;20043;-67
2023/06/10 07:27:47;;;;;;;8.93;5.32;;;;;;;;;;4845795;28;20215;-67
2023/06/10 07:30:12;;;;;;;8.73;5.10;;;;;;;;;;4844701;28;20194;-68
2023/06/10 07:32:37;;;;;;;8.10;4.80;;;;;;;;;;4845453;28;20052;-68
2023/06/10 07:35:03;;;;;;;8.73;4.93;;;;;;;;;;4846222;29;20996;-68
2023/06/10 07:37:28;;;;;;;12.02;5.00;;;;;;;;;;4845868;28;20977;-67
2023/06/10 07:39:54;;;;;;;9.00;5.13;;;;;;;;;;4844534;28;20044;-68
2023/06/10 07:42:19;;;;;;;8.98;4.95;;;;;;;;;;4844070;28;20056;-67
2023/06/10 07:44:44;;;;;;;8.52;5.03;;;;;;;;;;4845090;28;20060;-67
2023/06/10 07:47:10;;;;;;;8.88;4.95;;;;;;;;;;4859760;28;22386;-67
2023/06/10 07:49:35;;;;;;;9.77;5.35;;;;;;;;;;4846937;28;20992;-66
2023/06/10 07:52:00;;;;;;;9.95;5.70;;;;;;;;;;4859199;28;20064;-67
2023/06/10 07:54:26;;;;;;;8.65;4.80;;;;;;;;;;4844573;28;20038;-67
2023/06/10 07:56:53;;;;;;;11.80;5.10;;;;;;;;;;4845275;28;20060;-67
2023/06/10 07:59:19;;;;;;;8.60;4.80;;;;;;;;;;4843500;28;20533;-67
2023/06/10 08:01:44;;;;;;;9.30;4.80;;;;;;;;;;4859561;28;20037;-67
2023/06/10 08:04:09;;;;;;;8.23;4.47;;;;;;;;;;4843405;28;20048;-68
2023/06/10 08:06:36;;;;;;;11.65;5.18;;;;;;;;;;4845384;28;20048;-68
2023/06/10 08:09:01;;;;;;;9.90;5.32;;;;;;;;;;4845134;28;20111;-68
2023/06/10 08:11:29;;;;;;;9.05;4.85;;;;;;;;;;4845360;28;20133;-68
2023/06/10 08:13:54;;;;;;;7.85;4.65;;;;;;;;;;4842562;28;20051;-69
2023/06/10 08:16:19;;;;;;;8.85;4.68;;;;;;;;;;4845312;28;20037;-67
2023/06/10 08:18:45;;;;;;;9.20;4.85;;;;;;;;;;4847231;28;20963;-68
2023/06/10 08:21:10;;;;;;;8.75;5.22;;;;;;;;;;4889839;28;20039;-68
2023/06/10 08:23:38;;;;;;;8.32;4.80;;;;;;;;;;4858367;28;20064;-68
2023/06/10 08:26:03;;;;;;;9.07;4.68;;;;;;;;;;4844496;28;20151;-68
2023/06/10 08:28:30;;;;;;;9.13;5.25;;;;;;;;;;4846576;28;20051;-68
2023/06/10 08:30:56;;;;;;;10.60;4.80;;;;;;;;;;4844889;28;20120;-67
2023/06/10 08:33:21;;;;;;;7.15;4.88;;;;;;;;;;4845444;28;20099;-68
2023/06/10 08:35:46;;;;;;;9.25;4.88;;;;;;;;;;4845831;28;20083;-68
2023/06/10 08:38:14;;;;;;;9.93;5.20;;;;;;;;;;4844950;28;20095;-68
2023/06/10 08:40:39;;;;;;;8.70;5.00;;;;;;;;;;4845994;28;20609;-67
2023/06/10 08:43:07;;;;;;;10.65;5.32;;;;;;;;;;4846736;28;20124;-68
2023/06/10 08:45:35;;;;;;;9.48;5.30;;;;;;;;;;4845050;28;20045;-67
2023/06/10 08:48:02;;;;;;;8.38;4.78;;;;;;;;;;4845958;28;20052;-67
2023/06/10 08:50:29;;;;;;;9.65;5.35;;;;;;;;;;4845577;28;20048;-68
2023/06/10 08:52:57;;;;;;;10.30;4.90;;;;;;;;;;4846822;29;20040;-67
2023/06/10 08:55:28;;;;;;;10.85;5.22;;;;;;;;;;4849223;28;20061;-67
2023/06/10 08:57:53;;;;;;;9.68;5.40;;;;;;;;;;4846482;28;20997;-67
2023/06/10 09:00:19;;;;;;;7.82;4.35;;;;;;;;;;4848792;28;20048;-68
2023/06/10 09:02:44;;;;;;;9.95;4.65;;;;;;;;;;4845332;28;20036;-67
2023/06/10 09:05:10;;;;;;;12.85;5.07;;;;;;;;;;4848109;28;20083;-68
2023/06/10 09:07:36;;;;;;;8.68;4.95;;;;;;;;;;4847107;28;20918;-68
2023/06/10 09:10:03;;;;;;;9.88;4.90;;;;;;;;;;4846222;28;20041;-69
2023/06/10 09:12:31;;;;;;;11.35;5.40;;;;;;;;;;4848476;28;20040;-66
2023/06/10 09:14:56;;;;;;;7.70;5.18;;;;;;;;;;4847620;28;20143;-68
2023/06/10 09:17:24;;;;;;;17.98;5.00;;;;;;;;;;4847672;28;20040;-66
2023/06/10 09:19:50;;;;;;;9.02;5.25;;;;;;;;;;4862381;28;20119;-66
2023/06/10 09:22:18;;;;;;;9.30;4.60;;;;;;;;;;4848059;28;20164;-67
2023/06/10 09:24:46;;;;;;;8.43;4.80;;;;;;;;;;4845334;28;20850;-67
2023/06/10 09:27:11;;;;;;;10.25;4.78;;;;;;;;;;4845289;28;20045;-67
2023/06/10 09:29:45;;;;;;;13.32;4.85;;;;;;;;;;4848740;28;20095;-67
2023/06/10 09:32:12;;;;;;;10.27;4.72;;;;;;;;;;4863119;28;20126;-67
2023/06/10 09:34:39;;;;;;;10.02;4.72;;;;;;;;;;4862738;28;20147;-67
2023/06/10 09:37:05;;;;;;;9.48;5.03;;;;;;;;;;4848859;28;20044;-67
2023/06/10 09:39:30;;;;;;;7.88;4.40;;;;;;;;;;4865876;28;20056;-66
2023/06/10 09:41:56;;;;;;;8.32;4.60;;;;;;;;;;4863847;28;20063;-66
2023/06/10 09:44:21;;;;;;;10.02;4.55;;;;;;;;;;4866618;28;20123;-67
2023/06/10 09:46:47;;;;;;;11.63;5.15;;;;;;;;;;4864484;28;20074;-67
2023/06/10 09:49:13;;;;;;;10.48;4.40;;;;;;;;;;4865447;28;20183;-65
2023/06/10 09:51:51;;;;;;;7.82;4.28;;;;;;;;;;4862348;28;20040;-63
2023/06/10 09:54:16;;;;;;;8.55;4.75;;;;;;;;;;4866294;28;20057;-66
2023/06/10 09:56:42;;;;;;;6.70;4.70;;;;;;;;;;4878959;28;20055;-67
2023/06/10 09:59:08;;;;;;;9.90;4.65;;;;;;;;;;4865191;29;20072;-67
2023/06/10 10:01:35;;;;;;;9.07;4.50;;;;;;;;;;4862027;28;20047;-67
2023/06/10 10:04:03;;;;;;;7.85;4.47;;;;;;;;;;4865841;28;20048;-70
2023/06/10 10:06:30;;;;;;;10.95;4.72;;;;;;;;;;4863569;28;20958;-70
2023/06/10 10:08:55;;;;;;;10.70;4.65;;;;;;;;;;4863229;28;20059;-69
2023/06/10 10:11:25;;;;;;;8.70;4.70;;;;;;;;;;4863501;28;20041;-69
2023/06/10 10:13:51;;;;;;;9.35;4.47;;;;;;;;;;4865530;28;20104;-67
2023/06/10 10:16:19;;;;;;;6.95;4.20;;;;;;;;;;4864473;28;20051;-70
2023/06/10 10:18:52;;;;;;;9.60;4.53;;;;;;;;;;4862970;28;20670;-68
2023/06/10 10:21:22;;;;;;;11.82;4.40;;;;;;;;;;4942103;28;20045;-67
2023/06/10 10:23:58;;;;;;;8.95;4.28;;;;;;;;;;4863541;28;20497;-66
2023/06/10 10:26:26;;;;;;;8.85;4.45;;;;;;;;;;4862994;28;20044;-68
2023/06/10 10:28:58;;;;;;;6.93;4.28;;;;;;;;;;4862097;28;20517;-67
2023/06/10 10:31:23;;;;;;;8.52;4.20;;;;;;;;;;4843528;28;20041;-67
2023/06/10 10:33:53;;;;;;;11.48;4.80;;;;;;;;;;4863730;28;20516;-67
2023/06/10 10:36:19;;;;;;;7.75;4.38;;;;;;;;;;4864145;28;20059;-67
2023/06/10 10:38:45;;;;;;;7.00;4.07;;;;;;;;;;4864003;28;20505;-67
2023/06/10 10:41:14;;;;;;;6.40;4.18;;;;;;;;;;4877895;28;20049;-67
2023/06/10 10:43:39;;;;;;;8.15;4.00;;;;;;;;;;4863794;28;20131;-68
2023/06/10 10:46:11;;;;;;;10.20;4.38;;;;;;;;;;4863321;28;20060;-67
2023/06/10 10:48:36;;;;;;;;;;;;;;;;;;4863932;28;22332;-67
2023/06/10 10:51:01;;;;;;;10.93;4.30;;;;;;;;;;4860490;28;19915;-68
2023/06/10 10:53:26;;;;;;;10.65;3.88;;;;;;;;;;4862179;28;20045;-65
2023/06/10 10:56:04;;;;;;;6.63;3.92;;;;;;;;;;4863064;28;20068;-65
2023/06/10 10:58:29;;;;;;;9.05;3.80;;;;;;;;;;4863206;28;20664;-66
2023/06/10 11:00:54;;;;;;;7.95;4.25;;;;;;;;;;4862841;28;20041;-66
2023/06/10 11:03:20;;;;;;;8.90;3.97;;;;;;;;;;4863131;28;20044;-66
2023/06/10 11:05:49;;;;;;;9.52;3.92;;;;;;;;;;4864040;28;20064;-66
2023/06/10 11:08:18;;;;;;;6.72;4.15;;;;;;;;;;4863894;28;20075;-66
2023/06/10 11:10:52;;;;;;;6.72;3.78;;;;;;;;;;4859802;28;20887;-64
2023/06/10 11:13:20;;;;;;;10.00;3.90;;;;;;;;;;4869605;28;20036;-65
2023/06/10 11:15:49;;;;;;;8.30;4.00;;;;;;;;;;4859400;28;20605;-67
2023/06/10 11:18:31;;;;;;;5.28;3.38;;;;;;;;;;4841544;28;20155;-67
2023/06/10 11:20:59;;;;;;;6.35;3.25;;;;;;;;;;4859237;28;20051;-67
2023/06/10 11:23:27;;;;;;;7.05;4.00;;;;;;;;;;4861112;28;20120;-67
2023/06/10 11:26:11;;;;;;;6.65;3.85;;;;;;;;;;4860831;28;22321;-67
2023/06/10 11:28:37;;;;;;;7.90;3.90;;;;;;;;;;4861912;28;20143;-67
2023/06/10 11:31:05;;;;;;;6.70;3.35;;;;;;;;;;4860565;28;20043;-67
2023/06/10 11:33:33;;;;;;;6.57;3.67;;;;;;;;;;4860284;28;20049;-66
2023/06/10 11:35:58;;;;;;;7.68;3.55;;;;;;;;;;4877798;28;20040;-67
2023/06/10 11:38:24;;;;;;;5.50;3.50;;;;;;;;;;4864220;28;20122;-66
2023/06/10 11:40:50;;;;;;;7.03;3.65;;;;;;;;;;4860465;28;20043;-64
2023/06/10 11:43:19;;;;;;;7.38;3.80;;;;;;;;;;4863372;28;20044;-66
2023/06/10 11:45:44;;;;;;;7.68;3.80;;;;;;;;;;4862086;28;20055;-66
2023/06/10 11:48:12;;;;;;;9.43;3.83;;;;;;;;;;4863362;28;20195;-67
2023/06/10 11:50:38;;;;;;;7.90;3.90;;;;;;;;;;4861703;28;20041;-65
2023/06/10 11:53:07;;;;;;;8.60;4.00;;;;;;;;;;4861948;28;20041;-66
2023/06/10 11:55:46;;;;;;;6.70;3.58;;;;;;;;;;4861910;28;20140;-67
2023/06/10 11:58:12;;;;;;;7.13;3.65;;;;;;;;;;4875796;28;20041;-66
2023/06/10 12:00:49;;;;;;;7.25;3.88;;;;;;;;;;4863043;28;20047;-66
2023/06/10 12:03:17;;;;;;;7.15;4.10;;;;;;;;;;4863530;28;20041;-67
2023/06/10 12:05:55;;;;;;;8.13;3.70;;;;;;;;;;4861824;28;20413;-67
2023/06/10 12:08:23;;;;;;;6.25;3.70;;;;;;;;;;4863166;28;20144;-68
2023/06/10 12:10:51;;;;;;;7.72;3.80;;;;;;;;;;4863781;28;20045;-68
2023/06/10 12:13:18;;;;;;;7.07;3.60;;;;;;;;;;4862891;28;20116;-68
2023/06/10 12:15:44;;;;;;;6.00;3.83;;;;;;;;;;4876005;28;20135;-69
2023/06/10 12:18:18;;;;;;;5.55;3.25;;;;;;;;;;4863989;28;20045;-67
2023/06/10 12:20:44;;;;;;;6.78;3.42;;;;;;;;;;4864154;28;20048;-67
2023/06/10 12:23:10;;;;;;;5.30;3.00;;;;;;;;;;4861176;28;20150;-68
2023/06/10 12:25:38;;;;;;;6.10;3.55;;;;;;;;;;4861815;28;20147;-68
2023/06/10 12:28:10;;;;;;;6.45;3.53;;;;;;;;;;4878023;28;20048;-67
2023/06/10 12:30:35;;;;;;;8.02;3.80;;;;;;;;;;4864879;28;20043;-67
2023/06/10 12:33:00;;;;;;;5.97;3.60;;;;;;;;;;4865406;28;20040;-67
2023/06/10 12:35:27;;;;;;;5.03;3.58;;;;;;;;;;4874791;28;20135;-67
2023/06/10 12:38:02;;;;;;;5.35;3.47;;;;;;;;;;4864048;28;20040;-66
2023/06/10 12:40:31;;;;;;;6.03;3.40;;;;;;;;;;4861511;28;20119;-69
2023/06/10 12:42:57;;;;;;;7.40;3.30;;;;;;;;;;4864080;28;20128;-66
2023/06/10 12:45:43;;;;;;;4.80;3.20;;;;;;;;;;4863587;28;20079;-67
2023/06/10 12:48:08;;;;;;;6.30;4.13;;;;;;;;;;4864614;28;20649;-66
2023/06/10 12:50:35;;;;;;;8.02;3.60;;;;;;;;;;4877941;28;20055;-66
2023/06/10 12:53:01;;;;;;;7.25;3.55;;;;;;;;;;4864132;28;21941;-66
2023/06/10 12:55:28;;;;;;;5.78;3.50;;;;;;;;;;4877742;28;20052;-66
2023/06/10 12:57:54;;;;;;;5.30;3.42;;;;;;;;;;4928656;28;20045;-67
2023/06/10 13:00:20;;;;;;;7.88;3.60;;;;;;;;;;4866542;28;20044;-68
2023/06/10 13:02:45;;;;;;;5.60;3.30;;;;;;;;;;4866775;28;20055;-68
2023/06/10 13:05:10;;;;;;;4.30;3.33;;;;;;;;;;4862376;28;20532;-69
2023/06/10 13:07:36;;;;;;;8.35;3.90;;;;;;;;;;4863447;28;20103;-67
2023/06/10 13:10:01;;;;;;;7.40;3.45;;;;;;;;;;4862708;28;20052;-69
2023/06/10 13:12:28;;;;;;;5.75;3.50;;;;;;;;;;4864945;28;20068;-68
2023/06/10 13:14:54;;;;;;;6.05;3.65;;;;;;;;;;4863212;28;20646;-68
2023/06/10 13:17:20;;;;;;;6.32;3.42;;;;;;;;;;4861608;28;20035;-69
2023/06/10 13:19:45;;;;;;;7.43;3.70;;;;;;;;;;4863127;28;20565;-68
2023/06/10 13:22:11;;;;;;;5.93;3.60;;;;;;;;;;4859793;28;20033;-68
2023/06/10 13:24:38;;;;;;;7.05;3.40;;;;;;;;;;4872505;28;20474;-69
2023/06/10 13:27:04;;;;;;;6.15;3.40;;;;;;;;;;4862668;28;20048;-68
2023/06/10 13:29:30;;;;;;;3.70;3.05;;;;;;;;;;4861160;28;20057;-70
2023/06/10 13:31:55;;;;;;;8.07;3.50;;;;;;;;;;4862854;28;20044;-70
2023/06/10 13:34:23;;;;;;;8.82;3.35;;;;;;;;;;4863310;28;20597;-70
2023/06/10 13:36:48;;;;;;;6.57;3.72;;;;;;;;;;4862499;28;20064;-69
2023/06/10 13:39:16;;;;;;;8.43;3.80;;;;;;;;;;4862703;28;20103;-69
2023/06/10 13:41:41;;;;;;;6.47;3.55;;;;;;;;;;4860739;29;20080;-68
2023/06/10 13:44:07;;;;;;;7.15;3.45;;;;;;;;;;4862741;28;20088;-69
2023/06/10 13:46:32;;;;;;;7.53;3.72;;;;;;;;;;4858348;28;20040;-70
2023/06/10 13:49:01;;;;;;;9.85;3.33;;;;;;;;;;4860178;28;20095;-70
2023/06/10 13:51:26;;;;;;;5.38;3.20;;;;;;;;;;4860861;28;20513;-69
2023/06/10 13:53:52;;;;;;;6.05;3.35;;;;;;;;;;4862274;28;20167;-69
2023/06/10 13:56:17;;;;;;;5.80;3.85;;;;;;;;;;4862780;28;20037;-69
2023/06/10 13:58:43;;;;;;;8.02;3.60;;;;;;;;;;4862856;28;20048;-69
2023/06/10 14:01:08;;;;;;;7.35;4.00;;;;;;;;;;4863106;28;20075;-69
2023/06/10 14:03:33;;;;;;;5.18;3.55;;;;;;;;;;4862721;28;20143;-69
2023/06/10 14:05:59;;;;;;;5.03;3.45;;;;;;;;;;4859761;28;20053;-69
2023/06/10 14:08:24;;;;;;;5.20;3.22;;;;;;;;;;4877235;28;20056;-68
2023/06/10 14:10:51;;;;;;;6.50;3.40;;;;;;;;;;4877484;28;20109;-69
2023/06/10 14:13:16;;;;;;;4.72;3.33;;;;;;;;;;4863280;28;20515;-70
2023/06/10 14:15:42;;;;;;;6.05;3.65;;;;;;;;;;4860507;28;20047;-69
2023/06/10 14:18:07;;;;;;;7.15;3.20;;;;;;;;;;4876332;28;20040;-67
2023/06/10 14:20:32;;;;;;;6.88;3.80;;;;;;;;;;4876482;28;20051;-68
2023/06/10 14:22:58;;;;;;;5.10;3.35;;;;;;;;;;4862138;28;20075;-67
2023/06/10 14:25:26;;;;;;;6.00;3.60;;;;;;;;;;4859824;28;20102;-69
2023/06/10 14:27:51;;;;;;;7.00;3.50;;;;;;;;;;4863244;28;20415;-68
2023/06/10 14:30:19;;;;;;;6.68;3.40;;;;;;;;;;4861720;28;20146;-68
2023/06/10 14:32:44;;;;;;;8.20;3.60;;;;;;;;;;4863568;28;20116;-68
2023/06/10 14:35:10;;;;;;;6.50;3.75;;;;;;;;;;4861214;29;20930;-69